createdAt,value
2022-09-20T00:00:09.118Z,100.00
2022-09-20T00:02:35.276Z,100.00
2022-09-20T00:05:01.411Z,100.00
2022-09-20T00:07:27.611Z,100.00
2022-09-20T00:09:53.773Z,100.00
2022-09-20T00:12:19.882Z,100.00
2022-09-20T00:14:46.035Z,100.00
2022-09-20T00:17:12.148Z,100.00
2022-09-20T00:19:38.270Z,100.00
2022-09-20T00:22:04.403Z,100.00
2022-09-20T00:24:30.534Z,100.00
2022-09-20T00:26:56.657Z,100.00
2022-09-20T00:29:22.795Z,100.00
2022-09-20T00:31:49.019Z,100.00
2022-09-20T00:34:15.155Z,100.00
2022-09-20T00:36:41.271Z,100.00
2022-09-20T00:39:07.415Z,100.00
2022-09-20T00:41:33.555Z,100.00
2022-09-20T00:43:59.699Z,100.00
2022-09-20T00:46:25.886Z,100.00
2022-09-20T00:48:53.419Z,100.00
2022-09-20T00:51:19.576Z,100.00
2022-09-20T00:53:45.674Z,100.00
2022-09-20T00:56:11.787Z,100.00
2022-09-20T00:58:37.959Z,100.00
2022-09-20T01:01:04.111Z,100.00
2022-09-20T01:03:30.293Z,100.00
2022-09-20T01:05:56.400Z,100.00
2022-09-20T01:08:22.504Z,100.00
2022-09-20T01:10:48.630Z,100.00
2022-09-20T01:13:14.748Z,100.00
2022-09-20T01:15:40.887Z,100.00
2022-09-20T01:18:07.011Z,100.00
2022-09-20T01:20:33.314Z,100.00
2022-09-20T01:22:59.418Z,100.00
2022-09-20T01:25:25.566Z,100.00
2022-09-20T01:27:51.695Z,100.00
2022-09-20T01:30:17.790Z,100.00
2022-09-20T01:32:43.925Z,100.00
2022-09-20T01:35:10.030Z,100.00
2022-09-20T01:37:36.180Z,100.00
2022-09-20T01:40:02.346Z,100.00
2022-09-20T01:42:28.525Z,100.00
2022-09-20T01:44:54.673Z,100.00
2022-09-20T01:47:20.805Z,100.00
2022-09-20T01:49:46.913Z,100.00
2022-09-20T01:52:13.040Z,100.00
2022-09-20T01:54:39.190Z,100.00
2022-09-20T01:57:05.304Z,100.00
2022-09-20T01:59:31.920Z,100.00
2022-09-20T02:01:58.361Z,100.00
2022-09-20T02:04:24.568Z,100.00
2022-09-20T02:06:50.687Z,100.00
2022-09-20T02:09:16.866Z,100.00
2022-09-20T02:11:42.999Z,100.00
2022-09-20T02:14:09.133Z,100.00
2022-09-20T02:16:35.333Z,100.00
2022-09-20T02:19:01.797Z,100.00
2022-09-20T02:21:27.926Z,100.00
2022-09-20T02:23:54.113Z,100.00
2022-09-20T02:26:20.240Z,100.00
2022-09-20T02:28:46.375Z,100.00
2022-09-20T02:31:12.567Z,100.00
2022-09-20T02:33:38.774Z,100.00
2022-09-20T02:36:04.887Z,100.00
2022-09-20T02:38:31.035Z,100.00
2022-09-20T02:40:57.187Z,100.00
2022-09-20T02:43:23.290Z,100.00
2022-09-20T02:45:49.558Z,100.00
2022-09-20T02:48:15.716Z,100.00
2022-09-20T02:50:41.843Z,100.00
2022-09-20T02:53:07.956Z,100.00
2022-09-20T02:55:34.084Z,100.00
2022-09-20T02:58:00.191Z,100.00
2022-09-20T03:00:26.341Z,100.00
2022-09-20T03:02:52.448Z,100.00
2022-09-20T03:05:18.572Z,100.00
2022-09-20T03:07:44.704Z,100.00
2022-09-20T03:10:10.809Z,100.00
2022-09-20T03:12:36.942Z,100.00
2022-09-20T03:15:03.060Z,100.00
2022-09-20T03:17:29.191Z,100.00
2022-09-20T03:19:55.327Z,100.00
2022-09-20T03:22:21.445Z,100.00
2022-09-20T03:24:47.578Z,100.00
2022-09-20T03:27:13.715Z,100.00
2022-09-20T03:29:39.872Z,100.00
2022-09-20T03:32:06.076Z,100.00
2022-09-20T03:34:32.228Z,100.00
2022-09-20T03:36:58.385Z,100.00
2022-09-20T03:39:24.489Z,100.00
2022-09-20T03:41:50.612Z,100.00
2022-09-20T03:44:16.786Z,100.00
2022-09-20T03:46:42.887Z,100.00
2022-09-20T03:49:09.013Z,100.00
2022-09-20T03:51:35.144Z,100.00
2022-09-20T03:54:01.266Z,100.00
2022-09-20T03:56:27.378Z,100.00
2022-09-20T03:58:53.525Z,100.00
2022-09-20T04:01:19.801Z,100.00
2022-09-20T04:03:46.120Z,100.00
2022-09-20T04:06:12.224Z,100.00
2022-09-20T04:08:40.381Z,100.00
2022-09-20T04:11:06.674Z,100.00
2022-09-20T04:13:32.789Z,100.00
2022-09-20T04:15:58.922Z,100.00
2022-09-20T04:18:25.040Z,100.00
2022-09-20T04:20:51.173Z,100.00
2022-09-20T04:23:17.286Z,100.00
2022-09-20T04:25:44.285Z,100.00
2022-09-20T04:28:10.491Z,100.00
2022-09-20T04:30:36.606Z,100.00
2022-09-20T04:33:02.733Z,100.00
2022-09-20T04:35:28.852Z,100.00
2022-09-20T04:37:55.011Z,100.00
2022-09-20T04:40:21.186Z,100.00
2022-09-20T04:42:47.344Z,100.00
2022-09-20T04:45:13.475Z,100.00
2022-09-20T04:47:39.618Z,100.00
2022-09-20T04:50:05.745Z,100.00
2022-09-20T04:52:34.843Z,100.00
2022-09-20T04:55:01.008Z,100.00
2022-09-20T04:57:27.124Z,100.00
2022-09-20T04:59:53.255Z,100.00
2022-09-20T05:02:19.473Z,100.00
2022-09-20T05:04:45.627Z,100.00
2022-09-20T05:07:11.770Z,100.00
2022-09-20T05:09:37.929Z,100.00
2022-09-20T05:12:04.058Z,100.00
2022-09-20T05:17:01.283Z,100.00
2022-09-20T05:19:27.476Z,100.00
2022-09-20T05:21:53.596Z,100.00
2022-09-20T05:24:19.740Z,100.00
2022-09-20T05:26:45.876Z,100.00
2022-09-20T05:29:11.976Z,100.00
2022-09-20T05:31:38.181Z,100.00
2022-09-20T05:34:04.374Z,100.00
2022-09-20T05:36:34.448Z,100.00
2022-09-20T05:39:03.392Z,100.00
2022-09-20T05:41:29.978Z,100.00
2022-09-20T05:43:56.136Z,100.00
2022-09-20T05:46:22.268Z,100.00
2022-09-20T05:48:48.383Z,100.00
2022-09-20T05:51:14.603Z,100.00
2022-09-20T05:53:40.765Z,100.00
2022-09-20T05:56:06.959Z,100.00
2022-09-20T05:58:33.146Z,100.00
2022-09-20T06:00:59.862Z,100.00
2022-09-20T06:03:26.051Z,100.00
2022-09-20T06:05:52.167Z,100.00
2022-09-20T06:08:20.597Z,100.00
2022-09-20T06:10:46.779Z,100.00
2022-09-20T06:13:12.897Z,100.00
2022-09-20T06:15:39.059Z,100.00
2022-09-20T06:18:05.163Z,100.00
2022-09-20T06:20:31.269Z,100.00
2022-09-20T06:22:57.418Z,100.00
2022-09-20T06:25:23.544Z,100.00
2022-09-20T06:27:49.862Z,100.00
2022-09-20T06:30:15.994Z,100.00
2022-09-20T06:32:42.123Z,100.00
2022-09-20T06:35:08.289Z,100.00
2022-09-20T06:37:34.408Z,100.00
2022-09-20T06:40:00.564Z,100.00
2022-09-20T06:42:27.409Z,100.00
2022-09-20T06:44:53.630Z,100.00
2022-09-20T06:47:19.800Z,100.00
2022-09-20T06:49:46.000Z,100.00
2022-09-20T06:52:12.138Z,100.00
2022-09-20T06:54:38.283Z,100.00
2022-09-20T06:57:04.425Z,100.00
2022-09-20T06:59:30.621Z,100.00
2022-09-20T07:01:56.789Z,100.00
2022-09-20T07:04:22.943Z,100.00
2022-09-20T07:06:49.071Z,100.00
2022-09-20T07:09:15.205Z,100.00
2022-09-20T07:11:41.371Z,100.00
2022-09-20T07:14:07.565Z,100.00
2022-09-20T07:16:33.743Z,100.00
2022-09-20T07:18:59.906Z,100.00
2022-09-20T07:21:26.056Z,100.00
2022-09-20T07:23:52.252Z,100.00
2022-09-20T07:26:18.438Z,100.00
2022-09-20T07:28:44.566Z,100.00
2022-09-20T07:31:10.695Z,100.00
2022-09-20T07:33:36.852Z,100.00
2022-09-20T07:36:02.993Z,100.00
2022-09-20T07:38:29.118Z,100.00
2022-09-20T07:40:55.277Z,100.00
2022-09-20T07:43:21.407Z,100.00
2022-09-20T07:45:47.573Z,100.00
2022-09-20T07:48:13.713Z,100.00
2022-09-20T07:50:39.848Z,100.00
2022-09-20T07:53:05.955Z,100.00
2022-09-20T07:55:32.093Z,100.00
2022-09-20T07:57:58.204Z,100.00
2022-09-20T08:00:24.364Z,100.00
2022-09-20T08:02:50.500Z,100.00
2022-09-20T08:05:16.641Z,100.00
2022-09-20T08:07:42.800Z,100.00
2022-09-20T08:10:08.964Z,100.00
2022-09-20T08:15:21.282Z,100.00
2022-09-20T08:17:47.405Z,100.00
2022-09-20T08:20:13.568Z,100.00
2022-09-20T08:22:39.713Z,100.00
2022-09-20T08:25:05.862Z,100.00
2022-09-20T08:27:31.990Z,100.00
2022-09-20T08:29:58.114Z,100.00
2022-09-20T08:32:24.259Z,100.00
2022-09-20T08:34:50.387Z,100.00
2022-09-20T08:37:16.522Z,100.00
2022-09-20T08:39:58.860Z,100.00
2022-09-20T08:42:25.370Z,100.00
2022-09-20T08:44:59.156Z,100.00
2022-09-20T08:47:25.516Z,100.00
2022-09-20T08:49:56.997Z,100.00
2022-09-20T08:52:23.361Z,100.00
2022-09-20T08:54:49.517Z,100.00
2022-09-20T08:57:15.653Z,100.00
2022-09-20T08:59:41.799Z,100.00
2022-09-20T09:02:07.950Z,100.00
2022-09-20T09:04:34.130Z,100.00
2022-09-20T09:07:00.275Z,100.00
2022-09-20T09:09:26.415Z,100.00
2022-09-20T09:11:52.524Z,100.00
2022-09-20T09:14:18.675Z,100.00
2022-09-20T09:16:44.844Z,100.00
2022-09-20T09:19:11.028Z,100.00
2022-09-20T09:21:37.144Z,100.00
2022-09-20T09:24:03.306Z,100.00
2022-09-20T09:26:29.470Z,100.00
2022-09-20T09:28:55.639Z,100.00
2022-09-20T09:31:21.851Z,100.00
2022-09-20T09:33:48.015Z,100.00
2022-09-20T09:36:14.185Z,100.00
2022-09-20T09:38:40.327Z,100.00
2022-09-20T09:41:06.465Z,100.00
2022-09-20T09:43:32.566Z,100.00
2022-09-20T09:45:58.732Z,100.00
2022-09-20T09:48:24.923Z,100.00
2022-09-20T09:50:51.042Z,100.00
2022-09-20T09:53:17.195Z,100.00
2022-09-20T09:55:43.328Z,100.00
2022-09-20T09:58:09.446Z,100.00
2022-09-20T10:00:35.586Z,100.00
2022-09-20T10:03:01.736Z,100.00
2022-09-20T10:05:27.877Z,100.00
2022-09-20T10:07:54.023Z,100.00
2022-09-20T10:10:20.152Z,100.00
2022-09-20T10:12:52.100Z,100.00
2022-09-20T10:15:18.478Z,100.00
2022-09-20T10:17:44.642Z,100.00
2022-09-20T10:20:10.788Z,100.00
2022-09-20T10:22:36.925Z,100.00
2022-09-20T10:25:03.078Z,100.00
2022-09-20T10:27:29.952Z,100.00
2022-09-20T10:29:56.071Z,100.00
2022-09-20T10:32:22.214Z,100.00
2022-09-20T10:34:48.378Z,100.00
2022-09-20T10:37:14.522Z,100.00
2022-09-20T10:39:40.659Z,100.00
2022-09-20T10:42:06.813Z,100.00
2022-09-20T10:44:32.951Z,100.00
2022-09-20T10:46:59.150Z,100.00
2022-09-20T10:49:25.328Z,100.00
2022-09-20T10:51:51.597Z,100.00
2022-09-20T10:54:17.713Z,100.00
2022-09-20T10:56:43.887Z,100.00
2022-09-20T10:59:10.008Z,100.00
2022-09-20T11:01:36.309Z,100.00
2022-09-20T11:04:02.446Z,100.00
2022-09-20T11:06:28.573Z,100.00
2022-09-20T11:08:54.713Z,100.00
2022-09-20T11:11:20.843Z,100.00
2022-09-20T11:13:50.034Z,100.00
2022-09-20T11:16:16.286Z,100.00
2022-09-20T11:18:42.449Z,100.00
2022-09-20T11:21:08.608Z,100.00
2022-09-20T11:23:34.713Z,100.00
2022-09-20T11:26:00.825Z,100.00
2022-09-20T11:28:26.984Z,100.00
2022-09-20T11:30:53.456Z,100.00
2022-09-20T11:33:19.630Z,100.00
2022-09-20T11:35:45.780Z,100.00
2022-09-20T11:38:11.927Z,100.00
2022-09-20T11:40:38.174Z,100.00
2022-09-20T11:43:04.372Z,100.00
2022-09-20T11:45:30.564Z,100.00
2022-09-20T11:47:56.751Z,100.00
2022-09-20T11:50:22.864Z,94.38
2022-09-20T11:52:49.014Z,83.59
2022-09-20T11:55:15.159Z,81.68
2022-09-20T11:57:41.294Z,83.77
2022-09-20T12:00:07.427Z,81.72
2022-09-20T12:02:33.652Z,77.33
2022-09-20T12:05:01.938Z,77.08
2022-09-20T12:07:28.095Z,82.97
2022-09-20T12:09:55.247Z,83.81
2022-09-20T12:12:21.382Z,78.74
2022-09-20T12:14:47.553Z,83.85
2022-09-20T12:17:13.671Z,77.84
2022-09-20T12:19:39.805Z,75.08
2022-09-20T12:22:05.950Z,78.86
2022-09-20T12:24:32.081Z,83.49
2022-09-20T12:26:59.096Z,78.20
2022-09-20T12:29:25.261Z,76.58
2022-09-20T12:31:51.438Z,77.71
2022-09-20T12:34:17.605Z,83.38
2022-09-20T12:36:43.771Z,84.08
2022-09-20T12:39:17.558Z,80.92
2022-09-20T12:41:45.321Z,86.75
2022-09-20T12:44:11.456Z,90.17
2022-09-20T12:46:37.632Z,81.03
2022-09-20T12:49:03.753Z,85.01
2022-09-20T12:51:29.979Z,74.28
2022-09-20T12:53:56.124Z,78.17
2022-09-20T12:56:22.311Z,76.90
2022-09-20T12:58:48.435Z,76.48
2022-09-20T13:01:14.931Z,70.37
2022-09-20T13:03:41.138Z,75.81
2022-09-20T13:06:07.352Z,72.44
2022-09-20T13:08:33.547Z,75.07
2022-09-20T13:10:59.692Z,62.75
2022-09-20T13:13:25.833Z,63.55
2022-09-20T13:15:51.972Z,63.64
2022-09-20T13:18:18.130Z,62.17
2022-09-20T13:20:44.288Z,63.34
2022-09-20T13:23:10.423Z,61.81
2022-09-20T13:25:36.537Z,56.82
2022-09-20T13:28:02.699Z,54.02
2022-09-20T13:30:28.839Z,59.01
2022-09-20T13:32:54.943Z,60.38
2022-09-20T13:35:21.104Z,59.90
2022-09-20T13:37:47.222Z,59.68
2022-09-20T13:40:13.456Z,57.36
2022-09-20T13:42:39.760Z,57.46
2022-09-20T13:45:05.958Z,59.89
2022-09-20T13:47:32.097Z,59.21
2022-09-20T13:49:58.209Z,63.55
2022-09-20T13:52:24.332Z,62.64
2022-09-20T13:54:50.493Z,64.52
2022-09-20T13:57:16.627Z,66.13
2022-09-20T13:59:42.791Z,65.90
2022-09-20T14:02:08.948Z,69.61
2022-09-20T14:04:37.174Z,68.57
2022-09-20T14:07:03.319Z,68.17
2022-09-20T14:09:29.438Z,65.97
2022-09-20T14:11:55.601Z,64.40
2022-09-20T14:14:22.451Z,67.61
2022-09-20T14:16:48.693Z,66.29
2022-09-20T14:19:14.821Z,69.78
2022-09-20T14:21:40.945Z,67.79
2022-09-20T14:24:07.048Z,71.03
2022-09-20T14:26:33.185Z,76.05
2022-09-20T14:28:59.315Z,71.24
2022-09-20T14:31:25.493Z,70.62
2022-09-20T14:33:54.980Z,74.36
2022-09-20T14:36:21.505Z,74.08
2022-09-20T14:38:49.316Z,74.74
2022-09-20T14:41:15.461Z,75.27
2022-09-20T14:43:41.578Z,75.76
2022-09-20T14:46:07.765Z,74.67
2022-09-20T14:48:33.923Z,76.37
2022-09-20T14:51:00.039Z,77.96
2022-09-20T14:53:26.194Z,75.26
2022-09-20T14:55:52.333Z,74.97
2022-09-20T14:58:18.493Z,78.30
2022-09-20T15:00:44.629Z,74.86
2022-09-20T15:03:10.797Z,75.62
2022-09-20T15:05:36.976Z,74.99
2022-09-20T15:08:03.108Z,73.93
2022-09-20T15:10:29.330Z,68.79
2022-09-20T15:12:55.466Z,69.37
2022-09-20T15:15:21.684Z,71.67
2022-09-20T15:17:47.837Z,70.48
2022-09-20T15:20:13.980Z,70.45
2022-09-20T15:22:40.099Z,68.51
2022-09-20T15:25:06.262Z,71.03
2022-09-20T15:27:35.235Z,69.00
2022-09-20T15:30:01.384Z,69.06
2022-09-20T15:32:27.611Z,67.28
2022-09-20T15:34:53.754Z,70.28
2022-09-20T15:37:19.922Z,69.33
2022-09-20T15:39:46.063Z,67.39
2022-09-20T15:42:12.195Z,67.14
2022-09-20T15:44:38.346Z,66.41
2022-09-20T15:47:07.658Z,63.19
2022-09-20T15:49:33.775Z,65.25
2022-09-20T15:51:59.920Z,65.68
2022-09-20T15:54:26.033Z,64.92
2022-09-20T15:56:52.159Z,66.64
2022-09-20T15:59:19.384Z,68.62
2022-09-20T16:01:45.549Z,66.71
2022-09-20T16:04:11.667Z,67.55
2022-09-20T16:06:37.797Z,67.85
2022-09-20T16:09:03.957Z,69.58
2022-09-20T16:11:30.078Z,69.50
2022-09-20T16:13:56.258Z,71.55
2022-09-20T16:16:22.503Z,71.19
2022-09-20T16:18:48.632Z,69.53
2022-09-20T16:21:14.764Z,72.50
2022-09-20T16:23:40.901Z,73.13
2022-09-20T16:26:07.039Z,73.05
2022-09-20T16:28:33.192Z,72.66
2022-09-20T16:30:59.321Z,73.97
2022-09-20T16:33:25.494Z,75.83
2022-09-20T16:35:51.691Z,73.77
2022-09-20T16:38:17.840Z,74.69
2022-09-20T16:40:43.991Z,77.02
2022-09-20T16:43:10.215Z,78.52
2022-09-20T16:45:39.522Z,80.23
2022-09-20T16:48:08.607Z,83.59
2022-09-20T16:50:34.961Z,81.00
2022-09-20T16:53:01.114Z,81.55
2022-09-20T16:55:27.299Z,86.15
2022-09-20T16:57:53.452Z,87.79
2022-09-20T17:00:19.602Z,87.03
2022-09-20T17:02:47.864Z,87.66
2022-09-20T17:05:14.179Z,86.67
2022-09-20T17:07:40.423Z,89.58
2022-09-20T17:10:07.705Z,88.41
2022-09-20T17:12:33.850Z,91.76
2022-09-20T17:14:59.991Z,91.77
2022-09-20T17:17:26.132Z,91.22
2022-09-20T17:19:53.470Z,91.67
2022-09-20T17:22:19.806Z,90.60
2022-09-20T17:24:46.004Z,91.79
2022-09-20T17:27:12.244Z,93.29
2022-09-20T17:29:40.482Z,94.56
2022-09-20T17:32:06.666Z,95.87
2022-09-20T17:34:35.435Z,100.00
2022-09-20T17:37:01.606Z,100.00
2022-09-20T17:39:29.906Z,100.00
2022-09-20T17:41:56.149Z,100.00
2022-09-20T17:44:22.344Z,100.00
2022-09-20T17:46:48.823Z,100.00
2022-09-20T17:49:17.189Z,100.00
2022-09-20T17:51:43.318Z,100.00
2022-09-20T17:54:09.460Z,100.00
2022-09-20T17:56:36.721Z,100.00
2022-09-20T17:59:03.061Z,100.00
2022-09-20T18:01:29.215Z,100.00
2022-09-20T18:03:55.465Z,100.00
2022-09-20T18:06:21.650Z,100.00
2022-09-20T18:08:47.818Z,100.00
2022-09-20T18:11:14.145Z,100.00
2022-09-20T18:13:40.345Z,100.00
2022-09-20T18:16:09.343Z,100.00
2022-09-20T18:18:35.497Z,100.00
2022-09-20T18:21:01.629Z,100.00
2022-09-20T18:23:27.774Z,100.00
2022-09-20T18:25:54.027Z,100.00
2022-09-20T18:28:21.224Z,100.00
2022-09-20T18:30:47.366Z,100.00
2022-09-20T18:33:13.536Z,100.00
2022-09-20T18:35:39.747Z,100.00
2022-09-20T18:38:12.027Z,100.00
2022-09-20T18:40:38.519Z,100.00
2022-09-20T18:43:04.980Z,100.00
2022-09-20T18:45:31.241Z,100.00
2022-09-20T18:47:59.468Z,100.00
2022-09-20T18:50:26.302Z,100.00
2022-09-20T18:52:52.433Z,100.00
2022-09-20T18:55:18.648Z,100.00
2022-09-20T18:57:44.801Z,100.00
2022-09-20T19:00:10.936Z,100.00
2022-09-20T19:02:37.074Z,100.00
2022-09-20T19:05:03.389Z,100.00
2022-09-20T19:07:29.553Z,100.00
2022-09-20T19:09:55.878Z,100.00
2022-09-20T19:12:22.076Z,100.00
2022-09-20T19:14:48.226Z,100.00
2022-09-20T19:17:14.388Z,100.00
2022-09-20T19:19:40.546Z,100.00
2022-09-20T19:22:06.665Z,100.00
2022-09-20T19:24:33.079Z,100.00
2022-09-20T19:26:59.416Z,100.00
2022-09-20T19:29:25.631Z,100.00
2022-09-20T19:31:51.832Z,100.00
2022-09-20T19:34:18.022Z,100.00
2022-09-20T19:36:44.204Z,100.00
2022-09-20T19:39:10.377Z,100.00
2022-09-20T19:41:36.833Z,100.00
2022-09-20T19:44:02.988Z,100.00
2022-09-20T19:46:29.197Z,100.00
2022-09-20T19:48:55.331Z,100.00
2022-09-20T19:51:21.480Z,100.00
2022-09-20T19:53:47.634Z,100.00
2022-09-20T19:56:13.742Z,100.00
2022-09-20T19:58:39.900Z,100.00
2022-09-20T20:01:06.082Z,100.00
2022-09-20T20:03:32.221Z,100.00
2022-09-20T20:05:58.407Z,100.00
2022-09-20T20:08:24.566Z,100.00
2022-09-20T20:10:50.685Z,100.00
2022-09-20T20:13:16.842Z,100.00
2022-09-20T20:15:42.993Z,100.00
2022-09-20T20:18:11.350Z,100.00
2022-09-20T20:20:40.718Z,100.00
2022-09-20T20:23:06.884Z,100.00
2022-09-20T20:25:33.025Z,100.00
2022-09-20T20:27:59.195Z,100.00
2022-09-20T20:30:25.347Z,100.00
2022-09-20T20:32:51.502Z,100.00
2022-09-20T20:35:17.654Z,100.00
2022-09-20T20:37:43.805Z,100.00
2022-09-20T20:40:10.182Z,100.00
2022-09-20T20:42:36.328Z,100.00
2022-09-20T20:45:02.500Z,100.00
2022-09-20T20:47:28.656Z,100.00
2022-09-20T20:49:54.788Z,100.00
2022-09-20T20:52:20.964Z,100.00
2022-09-20T20:54:47.088Z,100.00
2022-09-20T20:57:13.212Z,100.00
2022-09-20T20:59:39.360Z,100.00
2022-09-20T21:02:07.943Z,100.00
2022-09-20T21:04:34.372Z,100.00
2022-09-20T21:07:00.509Z,100.00
2022-09-20T21:09:26.690Z,100.00
2022-09-20T21:11:52.919Z,100.00
2022-09-20T21:14:19.332Z,100.00
2022-09-20T21:16:45.490Z,100.00
2022-09-20T21:19:11.603Z,100.00
2022-09-20T21:21:37.726Z,100.00
2022-09-20T21:24:03.887Z,100.00
2022-09-20T21:26:30.029Z,100.00
2022-09-20T21:28:56.163Z,100.00
2022-09-20T21:31:22.398Z,100.00
2022-09-20T21:33:48.702Z,100.00
2022-09-20T21:36:14.891Z,100.00
2022-09-20T21:38:41.060Z,100.00
2022-09-20T21:41:07.229Z,100.00
2022-09-20T21:43:33.366Z,100.00
2022-09-20T21:45:59.597Z,100.00
2022-09-20T21:48:25.755Z,100.00
2022-09-20T21:50:51.870Z,100.00
2022-09-20T21:53:18.033Z,100.00
2022-09-20T21:55:44.224Z,100.00
2022-09-20T21:58:10.428Z,100.00
2022-09-20T22:00:36.555Z,100.00
2022-09-20T22:03:02.808Z,100.00
2022-09-20T22:05:28.976Z,100.00
2022-09-20T22:07:55.081Z,100.00
2022-09-20T22:10:21.213Z,100.00
2022-09-20T22:12:47.384Z,100.00
2022-09-20T22:15:13.532Z,100.00
2022-09-20T22:17:39.817Z,100.00
2022-09-20T22:20:05.974Z,100.00
2022-09-20T22:22:32.109Z,100.00
2022-09-20T22:24:58.237Z,100.00
2022-09-20T22:27:24.425Z,100.00
2022-09-20T22:29:50.556Z,100.00
2022-09-20T22:32:16.748Z,100.00
2022-09-20T22:34:42.886Z,100.00
2022-09-20T22:37:09.013Z,100.00
2022-09-20T22:39:35.162Z,100.00
2022-09-20T22:42:01.296Z,100.00
2022-09-20T22:44:27.454Z,100.00
2022-09-20T22:46:53.794Z,100.00
2022-09-20T22:49:19.926Z,100.00
2022-09-20T22:51:46.056Z,100.00
2022-09-20T22:54:12.248Z,100.00
2022-09-20T22:56:38.394Z,100.00
2022-09-20T22:59:04.576Z,100.00
2022-09-20T23:01:30.753Z,100.00
2022-09-20T23:03:57.118Z,100.00
2022-09-20T23:06:23.368Z,100.00
2022-09-20T23:08:49.513Z,100.00
2022-09-20T23:11:15.741Z,100.00
2022-09-20T23:13:41.955Z,100.00
2022-09-20T23:16:08.141Z,100.00
2022-09-20T23:18:34.279Z,100.00
2022-09-20T23:21:00.396Z,100.00
2022-09-20T23:23:27.474Z,100.00
2022-09-20T23:25:53.704Z,100.00
2022-09-20T23:28:19.854Z,100.00
2022-09-20T23:30:46.032Z,100.00
2022-09-20T23:33:12.186Z,100.00
2022-09-20T23:35:38.318Z,100.00
2022-09-20T23:38:04.460Z,100.00
2022-09-20T23:40:30.665Z,100.00
2022-09-20T23:42:56.811Z,100.00
2022-09-20T23:45:23.016Z,100.00
2022-09-20T23:47:49.163Z,100.00
2022-09-20T23:50:15.302Z,100.00
2022-09-20T23:52:41.417Z,100.00
2022-09-20T23:55:07.663Z,100.00
2022-09-20T23:57:33.842Z,100.00
2022-09-20T23:59:59.970Z,100.00
